Time;durP1;ratioP1;P1;durP2;ratioP2;P2;SDS_P1;SDS_P2;PMS_P1;PMS_P2;Temp;Humidity;BMP_temperature;BMP_pressure;BME280_temperature;BME280_humidity;BME280_pressure;Samples;Min_cycle;Max_cycle;Signal;HPM_P1;HPM_P2
2023/04/12 00:00:35;;;;;;;43.95;31.58;;;27.20;99.90;;;;;;5001655;28;20022;-70
2023/04/12 00:03:06;;;;;;;16.25;7.25;;;27.20;99.90;;;;;;5002989;28;20055;-70
2023/04/12 00:05:33;;;;;;;8.90;4.35;;;27.40;99.90;;;;;;5002097;28;20471;-70
2023/04/12 00:08:03;;;;;;;7.72;4.70;;;27.40;99.90;;;;;;5001955;28;20042;-70
2023/04/12 00:10:30;;;;;;;9.98;5.47;;;27.50;99.90;;;;;;5004138;28;20113;-69
2023/04/12 00:12:57;;;;;;;10.45;5.50;;;27.60;99.90;;;;;;5005797;28;20019;-68
2023/04/12 00:15:23;;;;;;;10.10;5.03;;;27.70;99.90;;;;;;5005139;28;20014;-70
2023/04/12 00:17:50;;;;;;;9.52;4.68;;;27.70;99.90;;;;;;5006888;28;20014;-68
2023/04/12 00:20:17;;;;;;;7.38;4.65;;;27.70;99.90;;;;;;5005660;28;20022;-71
2023/04/12 00:22:43;;;;;;;10.00;4.30;;;27.80;99.90;;;;;;5004490;28;20057;-70
2023/04/12 00:25:10;;;;;;;11.98;5.10;;;27.80;99.90;;;;;;5005252;28;20474;-70
2023/04/12 00:27:37;;;;;;;14.35;6.53;;;27.80;99.90;;;;;;5007244;28;20063;-69
2023/04/12 00:30:06;;;;;;;15.63;7.95;;;27.80;99.90;;;;;;5006396;28;20010;-74
2023/04/12 00:32:32;;;;;;;14.20;7.03;;;27.80;99.90;;;;;;5006034;28;20018;-79
2023/04/12 00:34:59;;;;;;;116.18;93.75;;;27.90;99.90;;;;;;5004984;28;20368;-73
2023/04/12 00:37:26;;;;;;;33.97;17.42;;;28.00;99.90;;;;;;5005873;28;20076;-71
2023/04/12 00:39:52;;;;;;;7.50;5.07;;;28.00;99.90;;;;;;5005996;28;20061;-77
2023/04/12 00:42:19;;;;;;;9.40;5.05;;;28.00;99.90;;;;;;5004384;28;20018;-74
2023/04/12 00:44:45;;;;;;;10.27;4.80;;;28.10;99.90;;;;;;5005828;28;20018;-74
2023/04/12 00:47:13;;;;;;;7.65;3.85;;;28.10;99.90;;;;;;5005677;28;20014;-75
2023/04/12 00:49:40;;;;;;;5.22;3.67;;;28.10;99.90;;;;;;5004128;28;20022;-71
2023/04/12 00:52:08;;;;;;;8.60;3.60;;;27.90;99.90;;;;;;5004322;28;20755;-72
2023/04/12 00:54:36;;;;;;;6.28;4.57;;;28.00;99.90;;;;;;5006080;28;20030;-71
2023/04/12 00:57:03;;;;;;;8.43;3.72;;;28.10;99.90;;;;;;5001473;28;20025;-72
2023/04/12 00:59:30;;;;;;;6.82;3.70;;;28.20;99.90;;;;;;5005004;28;20164;-76
2023/04/12 01:01:57;;;;;;;8.68;2.95;;;28.30;99.90;;;;;;5005963;28;20023;-75
2023/04/12 01:04:25;;;;;;;5.07;3.10;;;28.30;99.90;;;;;;5001703;28;20076;-76
2023/04/12 01:07:03;;;;;;;7.38;3.42;;;28.40;99.90;;;;;;5004266;28;20014;-76
2023/04/12 01:09:40;;;;;;;5.10;2.97;;;28.50;99.90;;;;;;5003660;28;20019;-81
2023/04/12 01:12:20;;;;;;;6.05;2.92;;;28.50;99.90;;;;;;5002246;28;20015;-76
2023/04/12 01:15:06;;;;;;;8.00;3.50;;;28.60;99.90;;;;;;5001189;28;20505;-76
2023/04/12 01:17:45;;;;;;;5.45;3.20;;;28.60;99.90;;;;;;5003542;28;20038;-77
2023/04/12 01:20:17;;;;;;;6.82;3.58;;;28.60;99.90;;;;;;5003132;28;20037;-76
2023/04/12 01:23:11;;;;;;;5.18;3.55;;;28.70;99.90;;;;;;5005981;28;20018;-75
2023/04/12 01:25:40;;;;;;;3.20;2.55;;;28.70;99.90;;;;;;5004660;28;20061;-76
2023/04/12 01:28:11;;;;;;;3.50;2.78;;;28.70;99.90;;;;;;5003897;28;20053;-78
2023/04/12 01:30:38;;;;;;;5.35;2.75;;;28.70;99.90;;;;;;5002974;28;20027;-76
2023/04/12 01:33:08;;;;;;;6.90;2.78;;;28.80;99.90;;;;;;5004805;28;20371;-77
2023/04/12 01:35:35;;;;;;;6.70;3.05;;;28.90;99.90;;;;;;5004719;28;20112;-76
2023/04/12 01:38:02;;;;;;;6.70;3.38;;;29.10;99.90;;;;;;5002903;28;20081;-78
2023/04/12 01:40:32;;;;;;;4.03;3.30;;;29.10;99.90;;;;;;5004032;28;20046;-81
2023/04/12 01:43:06;;;;;;;7.22;2.65;;;29.20;99.90;;;;;;5004984;28;20029;-78
2023/04/12 01:45:33;;;;;;;5.53;2.92;;;29.30;99.90;;;;;;5004240;28;20031;-79
2023/04/12 01:48:01;;;;;;;3.85;2.78;;;29.40;99.90;;;;;;5002567;28;20529;-78
2023/04/12 01:50:39;;;;;;;3.55;2.47;;;29.40;99.90;;;;;;5004207;28;20029;-80
2023/04/12 01:53:11;;;;;;;2.53;2.17;;;29.50;99.90;;;;;;5000973;28;20018;-79
2023/04/12 01:55:41;;;;;;;4.30;2.55;;;29.50;99.90;;;;;;5002903;28;20022;-78
2023/04/12 01:58:10;;;;;;;5.65;2.50;;;29.60;99.90;;;;;;5004050;28;20080;-77
2023/04/12 02:00:37;;;;;;;4.13;2.67;;;29.70;99.90;;;;;;5004856;28;20383;-72
2023/04/12 02:03:05;;;;;;;5.65;2.80;;;29.70;99.90;;;;;;5000692;28;20080;-73
2023/04/12 02:05:33;;;;;;;6.97;4.90;;;29.80;99.90;;;;;;5003311;28;20033;-70
2023/04/12 02:08:03;;;;;;;4.18;3.17;;;29.90;99.90;;;;;;5004165;28;20088;-72
2023/04/12 02:10:30;;;;;;;4.35;3.33;;;30.00;99.90;;;;;;5003602;28;20085;-73
2023/04/12 02:13:02;;;;;;;6.30;3.60;;;30.10;99.90;;;;;;5002808;28;20029;-72
2023/04/12 02:15:29;;;;;;;4.22;3.50;;;30.10;99.90;;;;;;5001775;28;20050;-71
2023/04/12 02:17:58;;;;;;;5.97;3.83;;;30.30;99.90;;;;;;5002865;28;20026;-72
2023/04/12 02:20:26;;;;;;;5.05;4.38;;;30.30;99.90;;;;;;5000344;28;20026;-66
2023/04/12 02:22:53;;;;;;;5.50;4.50;;;30.30;99.90;;;;;;5003266;28;20021;-66
2023/04/12 02:25:20;;;;;;;9.48;5.35;;;30.40;99.90;;;;;;5004883;28;20386;-66
2023/04/12 02:27:47;;;;;;;6.28;4.80;;;30.60;99.90;;;;;;5002519;28;20026;-65
2023/04/12 02:30:15;;;;;;;8.45;4.90;;;30.60;99.90;;;;;;4995256;28;20483;-67
2023/04/12 02:32:43;;;;;;;7.88;5.20;;;30.60;99.90;;;;;;4997381;28;20117;-67
2023/04/12 02:35:16;;;;;;;8.38;5.25;;;30.60;99.90;;;;;;5000040;28;20021;-66
2023/04/12 02:37:45;;;;;;;6.85;4.90;;;30.70;99.90;;;;;;4998425;28;20034;-66
2023/04/12 02:40:14;;;;;;;8.63;5.57;;;30.70;99.90;;;;;;5000208;28;20029;-66
2023/04/12 02:42:42;;;;;;;9.30;5.88;;;30.80;99.90;;;;;;4998857;28;20049;-66
2023/04/12 02:45:10;;;;;;;8.00;6.30;;;30.90;99.90;;;;;;5000323;28;20084;-68
2023/04/12 02:47:37;;;;;;;11.20;6.40;;;30.90;99.90;;;;;;5000897;28;20031;-65
2023/04/12 02:50:06;;;;;;;8.10;5.72;;;31.00;99.90;;;;;;4998244;28;20053;-66
2023/04/12 02:52:33;;;;;;;7.70;4.75;;;31.00;99.90;;;;;;5001608;28;20025;-67
2023/04/12 02:54:59;;;;;;;5.72;4.82;;;31.10;99.90;;;;;;5002820;28;20022;-66
2023/04/12 02:57:26;;;;;;;6.57;5.00;;;31.10;99.90;;;;;;5000770;28;20034;-66
2023/04/12 02:59:53;;;;;;;10.23;5.35;;;31.10;99.90;;;;;;5001418;28;20041;-67
2023/04/12 03:02:20;;;;;;;8.38;5.43;;;31.00;99.90;;;;;;5002651;28;20124;-68
2023/04/12 03:04:49;;;;;;;8.63;5.70;;;31.00;99.90;;;;;;5000880;28;20494;-66
2023/04/12 03:07:18;;;;;;;8.52;5.60;;;31.00;99.90;;;;;;5000761;28;20049;-67
2023/04/12 03:09:46;;;;;;;9.82;5.10;;;31.00;99.90;;;;;;5000958;28;20034;-66
2023/04/12 03:12:15;;;;;;;9.07;5.18;;;31.00;99.90;;;;;;4976183;28;20042;-66
2023/04/12 03:14:41;;;;;;;8.90;5.15;;;31.10;99.90;;;;;;4992838;28;20117;-66
2023/04/12 03:17:08;;;;;;;10.45;5.30;;;31.10;99.90;;;;;;4974099;28;20015;-66
2023/04/12 03:19:35;;;;;;;8.30;5.68;;;31.00;99.90;;;;;;4982927;28;20371;-67
2023/04/12 03:22:03;;;;;;;9.23;6.53;;;30.90;99.90;;;;;;4999803;28;20439;-66
2023/04/12 03:24:32;;;;;;;14.07;7.93;;;30.90;99.90;;;;;;5002758;28;20022;-65
2023/04/12 03:27:03;;;;;;;17.15;8.02;;;30.90;99.90;;;;;;5001692;28;20054;-66
2023/04/12 03:29:30;;;;;;;11.23;7.15;;;30.90;99.90;;;;;;5000891;28;20029;-66
2023/04/12 03:31:58;;;;;;;9.77;6.57;;;30.80;99.90;;;;;;4997383;28;20019;-66
2023/04/12 03:34:31;;;;;;;15.05;7.35;;;30.60;99.90;;;;;;4993567;28;20483;-67
2023/04/12 03:36:58;;;;;;;10.63;6.63;;;30.60;99.90;;;;;;4993752;28;20032;-66
2023/04/12 03:39:24;;;;;;;8.68;5.80;;;30.40;99.90;;;;;;4993206;28;20380;-65
2023/04/12 03:41:52;;;;;;;7.95;6.20;;;30.40;99.90;;;;;;4996267;28;20030;-66
2023/04/12 03:44:20;;;;;;;7.90;5.97;;;30.40;99.90;;;;;;4997201;28;20491;-66
2023/04/12 03:46:47;;;;;;;10.90;6.57;;;30.30;99.90;;;;;;4997071;28;20419;-66
2023/04/12 03:49:15;;;;;;;10.57;6.70;;;30.30;99.90;;;;;;4997109;28;20026;-66
2023/04/12 03:51:42;;;;;;;33.08;17.98;;;30.30;99.90;;;;;;4997370;28;20027;-67
2023/04/12 03:54:11;;;;;;;13.02;8.55;;;30.40;99.90;;;;;;4997182;28;20033;-66
2023/04/12 03:56:38;;;;;;;15.30;9.77;;;30.40;99.90;;;;;;4997044;28;20026;-65
2023/04/12 03:59:07;;;;;;;18.83;8.88;;;30.50;99.90;;;;;;4996955;28;20030;-66
2023/04/12 04:01:34;;;;;;;11.80;8.20;;;30.40;99.90;;;;;;4996873;28;20022;-66
2023/04/12 04:04:02;;;;;;;11.15;8.43;;;30.40;99.90;;;;;;4996906;28;20514;-66
2023/04/12 04:06:29;;;;;;;18.15;10.45;;;30.30;99.90;;;;;;4996873;28;20026;-66
2023/04/12 04:08:56;;;;;;;15.93;10.30;;;30.40;99.90;;;;;;4996366;28;20042;-66
2023/04/12 04:11:24;;;;;;;10.15;7.72;;;30.40;99.90;;;;;;4996727;28;20085;-65
2023/04/12 04:13:51;;;;;;;11.85;8.63;;;30.50;99.90;;;;;;4996708;28;20031;-66
2023/04/12 04:16:17;;;;;;;20.35;11.63;;;30.50;99.90;;;;;;4996474;28;20101;-66
2023/04/12 04:18:44;;;;;;;8.90;5.47;;;30.60;99.90;;;;;;4996603;28;20061;-67
2023/04/12 04:21:10;;;;;;;6.20;4.65;;;30.50;99.90;;;;;;4996551;28;20542;-67
2023/04/12 04:23:38;;;;;;;8.07;4.97;;;30.60;99.90;;;;;;4996669;28;20041;-65
2023/04/12 04:26:09;;;;;;;7.00;4.55;;;30.50;99.90;;;;;;4996483;28;20500;-66
2023/04/12 04:28:37;;;;;;;8.18;6.53;;;30.50;99.90;;;;;;4996596;28;20038;-66
2023/04/12 04:31:05;;;;;;;11.82;8.43;;;30.60;99.90;;;;;;4996241;28;20022;-66
2023/04/12 04:33:32;;;;;;;11.82;5.30;;;30.70;99.90;;;;;;4996364;28;20038;-65
2023/04/12 04:35:59;;;;;;;9.15;5.45;;;30.80;99.90;;;;;;4996360;28;20098;-67
2023/04/12 04:38:26;;;;;;;9.80;5.95;;;30.80;99.90;;;;;;4995997;28;20056;-67
2023/04/12 04:40:54;;;;;;;6.60;5.63;;;30.80;99.90;;;;;;4996296;28;20484;-66
2023/04/12 04:43:21;;;;;;;10.75;6.03;;;30.80;99.90;;;;;;4996207;28;20042;-66
2023/04/12 04:45:53;;;;;;;8.63;5.70;;;30.90;99.90;;;;;;4995970;28;20531;-66
2023/04/12 04:48:20;;;;;;;;;;;30.80;99.90;;;;;;4996371;28;20081;-66
2023/04/12 04:50:47;;;;;;;8.98;5.55;;;30.80;99.90;;;;;;4996152;28;19906;-66
2023/04/12 04:53:15;;;;;;;9.10;6.10;;;30.80;99.90;;;;;;4995153;28;20050;-66
2023/04/12 04:55:41;;;;;;;10.93;5.93;;;30.90;99.90;;;;;;4996101;28;20018;-66
2023/04/12 04:58:08;;;;;;;8.32;6.63;;;30.90;99.90;;;;;;4995812;28;20395;-66
2023/04/12 05:00:35;;;;;;;14.48;9.43;;;30.80;99.90;;;;;;4995736;28;20110;-66
2023/04/12 05:03:02;;;;;;;16.02;8.77;;;30.80;99.90;;;;;;4995722;28;20109;-66
2023/04/12 05:05:29;;;;;;;12.35;7.93;;;30.80;99.90;;;;;;4995754;28;20602;-66
2023/04/12 05:07:57;;;;;;;10.32;6.47;;;30.90;99.90;;;;;;4995343;28;20057;-65
2023/04/12 05:10:23;;;;;;;70.72;54.47;;;30.90;99.90;;;;;;4995644;28;20027;-66
2023/04/12 05:12:50;;;;;;;12.38;8.57;;;30.90;99.90;;;;;;4995748;28;20018;-66
2023/04/12 05:15:17;;;;;;;16.85;7.68;;;30.90;99.90;;;;;;4995481;28;20022;-66
2023/04/12 05:17:44;;;;;;;10.52;8.00;;;31.00;99.90;;;;;;4995706;28;20030;-66
2023/04/12 05:20:11;;;;;;;14.68;7.10;;;31.00;99.90;;;;;;4995572;28;20104;-66
2023/04/12 05:22:37;;;;;;;11.93;6.13;;;31.00;99.90;;;;;;4995389;28;20502;-65
2023/04/12 05:25:05;;;;;;;15.35;9.48;;;30.90;99.90;;;;;;4995400;28;20061;-66
2023/04/12 05:27:31;;;;;;;14.85;8.55;;;30.90;99.90;;;;;;4995286;28;20030;-65
2023/04/12 05:29:59;;;;;;;17.70;9.50;;;30.90;99.90;;;;;;4995239;28;20024;-66
2023/04/12 05:32:26;;;;;;;10.55;7.22;;;31.00;99.90;;;;;;4995485;28;20079;-66
2023/04/12 05:34:52;;;;;;;13.48;9.55;;;31.00;99.90;;;;;;4995250;28;20042;-66
2023/04/12 05:37:19;;;;;;;11.07;7.70;;;30.90;99.90;;;;;;4995226;28;20026;-66
2023/04/12 05:39:45;;;;;;;13.73;8.93;;;31.00;99.90;;;;;;4995290;28;20027;-66
2023/04/12 05:42:12;;;;;;;15.50;9.68;;;31.00;99.90;;;;;;4988550;28;20077;-66
2023/04/12 05:44:38;;;;;;;11.65;8.02;;;31.00;99.90;;;;;;4979444;28;20027;-67
2023/04/12 05:47:05;;;;;;;11.77;9.07;;;31.00;99.90;;;;;;4975441;28;20031;-66
2023/04/12 05:49:31;;;;;;;12.05;9.38;;;31.00;99.90;;;;;;4975385;28;20042;-66
2023/04/12 05:51:58;;;;;;;14.23;9.63;;;31.00;99.90;;;;;;4975249;28;20035;-65
2023/04/12 05:54:25;;;;;;;12.70;10.10;;;31.00;99.90;;;;;;4975354;28;20371;-66
2023/04/12 05:56:53;;;;;;;20.50;12.82;;;31.00;99.90;;;;;;4975336;28;20026;-66
2023/04/12 05:59:21;;;;;;;19.40;14.18;;;31.00;99.90;;;;;;4975132;28;20034;-65
2023/04/12 06:01:47;;;;;;;14.30;11.77;;;31.00;99.90;;;;;;4975294;28;20066;-66
2023/04/12 06:04:14;;;;;;;22.65;14.98;;;30.90;99.90;;;;;;4974268;28;20031;-66
2023/04/12 06:06:42;;;;;;;21.38;14.38;;;30.90;99.90;;;;;;4975026;28;20033;-66
2023/04/12 06:09:09;;;;;;;18.10;13.73;;;30.90;99.90;;;;;;4975021;28;20039;-66
2023/04/12 06:11:37;;;;;;;19.08;12.77;;;30.90;99.90;;;;;;4975222;28;20023;-66
2023/04/12 06:14:04;;;;;;;17.90;13.25;;;31.00;99.90;;;;;;4974948;28;20106;-65
2023/04/12 06:16:31;;;;;;;16.88;12.43;;;30.90;99.90;;;;;;4973883;28;20622;-67
2023/04/12 06:18:57;;;;;;;15.30;11.90;;;30.90;99.90;;;;;;4975062;28;20031;-67
2023/04/12 06:21:24;;;;;;;16.75;12.73;;;30.90;99.90;;;;;;4974922;28;20026;-66
2023/04/12 06:23:51;;;;;;;19.25;13.35;;;30.90;99.90;;;;;;4974909;28;20109;-66
2023/04/12 06:26:17;;;;;;;16.52;12.18;;;30.90;99.90;;;;;;4973981;28;20030;-65
2023/04/12 06:28:44;;;;;;;16.58;11.20;;;31.00;99.90;;;;;;4973153;28;20431;-65
2023/04/12 06:31:10;;;;;;;15.75;9.05;;;31.00;99.90;;;;;;4973242;28;20023;-66
2023/04/12 06:33:37;;;;;;;14.95;8.85;;;31.00;99.90;;;;;;4973358;28;20144;-66
2023/04/12 06:36:04;;;;;;;10.13;7.53;;;31.00;99.90;;;;;;4973350;28;20369;-66
2023/04/12 06:38:30;;;;;;;11.13;7.80;;;31.00;99.90;;;;;;4973711;28;20480;-66
2023/04/12 06:40:57;;;;;;;13.75;7.95;;;31.10;99.90;;;;;;4974150;28;20027;-67
2023/04/12 06:43:23;;;;;;;11.15;7.88;;;31.00;99.90;;;;;;4974652;28;20019;-66
2023/04/12 06:45:50;;;;;;;10.07;8.02;;;30.90;99.90;;;;;;4974495;28;20027;-67
2023/04/12 06:48:17;;;;;;;10.15;8.05;;;30.80;99.90;;;;;;4974477;28;20034;-66
2023/04/12 06:50:44;;;;;;;12.38;8.65;;;30.80;99.90;;;;;;4974506;28;20026;-66
2023/04/12 06:53:12;;;;;;;12.77;9.05;;;30.70;99.90;;;;;;4974345;28;20030;-66
2023/04/12 06:55:39;;;;;;;11.93;9.20;;;30.70;99.90;;;;;;4974434;28;20031;-66
2023/04/12 06:58:06;;;;;;;11.00;9.27;;;30.70;99.90;;;;;;4974436;28;20050;-66
2023/04/12 07:00:33;;;;;;;11.60;9.57;;;30.80;99.90;;;;;;4974312;28;20030;-67
2023/04/12 07:03:00;;;;;;;13.63;10.82;;;30.90;99.90;;;;;;4974424;28;20027;-67
2023/04/12 07:05:26;;;;;;;18.48;10.80;;;31.00;99.90;;;;;;4974342;28;20085;-67
2023/04/12 07:07:53;;;;;;;16.75;11.23;;;31.00;99.90;;;;;;4973719;28;20039;-66
2023/04/12 07:10:19;;;;;;;15.50;12.23;;;31.00;99.90;;;;;;4974584;28;20023;-66
2023/04/12 07:12:46;;;;;;;14.77;11.50;;;31.20;99.90;;;;;;4974401;28;20019;-66
2023/04/12 07:15:12;;;;;;;18.67;12.43;;;31.30;99.90;;;;;;4974270;28;20023;-66
2023/04/12 07:17:39;;;;;;;16.98;12.32;;;31.40;99.90;;;;;;4978433;28;20110;-66
2023/04/12 07:20:06;;;;;;;15.45;11.98;;;31.50;99.90;;;;;;4978220;28;20034;-67
2023/04/12 07:22:32;;;;;;;19.00;13.82;;;31.60;99.90;;;;;;4978097;28;20027;-67
2023/04/12 07:24:59;;;;;;;20.27;15.80;;;31.70;99.90;;;;;;4978134;28;20031;-67
2023/04/12 07:27:25;;;;;;;19.50;14.48;;;31.70;99.90;;;;;;4978018;28;20034;-66
2023/04/12 07:29:53;;;;;;;17.10;14.75;;;31.80;99.90;;;;;;4977998;28;20015;-66
2023/04/12 07:32:20;;;;;;;17.58;14.32;;;31.90;99.90;;;;;;4978016;28;20023;-66
2023/04/12 07:34:46;;;;;;;20.05;16.02;;;32.10;99.90;;;;;;4978013;28;20026;-66
2023/04/12 07:37:13;;;;;;;23.88;17.05;;;32.20;99.90;;;;;;4977870;28;20019;-65
2023/04/12 07:39:40;;;;;;;17.75;15.35;;;32.30;99.90;;;;;;4977998;28;20506;-67
2023/04/12 07:42:06;;;;;;;21.92;17.10;;;32.40;99.90;;;;;;4977845;28;20412;-66
2023/04/12 07:44:33;;;;;;;17.83;15.43;;;32.40;99.90;;;;;;4977613;28;20031;-63
2023/04/12 07:47:00;;;;;;;28.42;18.27;;;32.40;99.90;;;;;;4977706;28;20022;-65
2023/04/12 07:49:26;;;;;;;25.60;18.33;;;32.40;99.90;;;;;;4977718;28;20118;-65
2023/04/12 07:51:53;;;;;;;32.42;25.77;;;32.40;99.90;;;;;;4977621;28;20034;-65
2023/04/12 07:54:20;;;;;;;25.90;18.73;;;32.40;99.90;;;;;;4977459;28;20029;-65
2023/04/12 07:57:02;;;;;;;33.83;24.52;;;32.40;99.90;;;;;;4977143;28;20023;-65
2023/04/12 07:59:29;;;;;;;;;;;32.40;99.90;;;;;;4978068;28;20031;-64
2023/04/12 08:01:55;;;;;;;21.77;19.23;;;32.40;99.90;;;;;;4977902;28;20352;-65
2023/04/12 08:04:22;;;;;;;29.10;20.42;;;32.40;99.90;;;;;;4977497;28;20042;-65
2023/04/12 08:06:49;;;;;;;30.63;22.08;;;32.50;99.90;;;;;;4977138;28;20531;-65
2023/04/12 08:09:15;;;;;;;26.60;21.05;;;32.50;99.90;;;;;;4977241;28;20042;-64
2023/04/12 08:11:42;;;;;;;31.13;21.65;;;32.50;99.90;;;;;;4977313;28;20065;-65
2023/04/12 08:14:09;;;;;;;25.83;20.38;;;32.50;99.90;;;;;;4977128;28;20476;-65
2023/04/12 08:16:36;;;;;;;26.85;21.08;;;32.50;99.90;;;;;;4977210;28;20026;-65
2023/04/12 08:19:02;;;;;;;28.55;22.58;;;32.50;99.90;;;;;;4977118;28;20055;-65
2023/04/12 08:21:29;;;;;;;24.33;21.23;;;32.50;99.90;;;;;;4977013;28;20042;-65
2023/04/12 08:23:56;;;;;;;27.33;21.13;;;32.50;99.90;;;;;;4976595;28;20061;-65
2023/04/12 08:26:22;;;;;;;32.55;21.48;;;32.60;99.90;;;;;;4976890;28;20026;-65
2023/04/12 08:28:49;;;;;;;26.77;22.25;;;32.60;99.90;;;;;;4975802;28;20031;-64
2023/04/12 08:31:16;;;;;;;34.05;24.85;;;32.60;99.90;;;;;;4976949;28;20041;-65
2023/04/12 08:33:43;;;;;;;68.47;54.15;;;32.60;99.90;;;;;;4977186;28;20110;-65
2023/04/12 08:36:10;;;;;;;66.57;45.28;;;32.60;99.90;;;;;;4976753;28;20029;-65
2023/04/12 08:38:37;;;;;;;66.50;48.88;;;32.50;99.90;;;;;;4976662;28;20043;-65
2023/04/12 08:41:05;;;;;;;68.93;50.15;;;32.50;99.90;;;;;;4976772;28;20105;-66
2023/04/12 08:43:33;;;;;;;54.15;37.25;;;32.50;99.90;;;;;;4976720;28;20404;-64
2023/04/12 08:46:00;;;;;;;47.92;35.92;;;32.50;99.90;;;;;;4976712;28;20082;-65
2023/04/12 08:48:28;;;;;;;45.13;31.65;;;32.50;99.90;;;;;;4976553;28;20041;-64
2023/04/12 08:50:57;;;;;;;190.15;133.57;;;32.50;99.90;;;;;;4976475;28;20023;-64
2023/04/12 08:53:24;;;;;;;117.68;83.05;;;32.50;99.90;;;;;;4976549;28;20027;-65
2023/04/12 08:55:50;;;;;;;82.60;56.97;;;32.40;99.90;;;;;;4976837;28;20436;-65
2023/04/12 08:58:19;;;;;;;82.38;55.25;;;32.40;99.90;;;;;;4976467;28;20023;-65
2023/04/12 09:00:47;;;;;;;91.18;49.97;;;32.50;99.90;;;;;;4976533;28;20431;-65
2023/04/12 09:03:13;;;;;;;65.40;39.13;;;32.40;99.90;;;;;;4976393;28;20031;-65
2023/04/12 09:05:40;;;;;;;45.10;31.55;;;32.40;99.90;;;;;;4976156;28;20034;-66
2023/04/12 09:08:07;;;;;;;63.50;45.30;;;32.30;99.90;;;;;;4976107;28;20051;-66
2023/04/12 09:10:37;;;;;;;49.90;36.90;;;32.20;99.90;;;;;;4976647;28;20035;-65
2023/04/12 09:13:04;;;;;;;55.00;41.08;;;32.20;99.90;;;;;;4976022;28;20568;-66
2023/04/12 09:15:32;;;;;;;62.78;40.13;;;32.20;99.90;;;;;;4976082;28;20031;-65
2023/04/12 09:18:06;;;;;;;58.65;37.47;;;32.10;99.90;;;;;;4976214;28;20034;-66
2023/04/12 09:20:34;;;;;;;52.47;32.50;;;32.20;99.90;;;;;;4975868;28;20027;-66
2023/04/12 09:23:01;;;;;;;60.08;41.15;;;32.20;99.90;;;;;;4975809;28;20031;-65
2023/04/12 09:25:43;;;;;;;56.13;37.90;;;32.20;99.90;;;;;;4975926;28;20034;-66
2023/04/12 09:28:21;;;;;;;64.78;39.90;;;32.10;99.90;;;;;;4976116;28;20031;-66
2023/04/12 09:30:54;;;;;;;65.15;36.10;;;32.10;99.90;;;;;;4975857;28;20051;-65
2023/04/12 09:33:31;;;;;;;50.20;33.65;;;32.10;99.90;;;;;;4976045;28;20027;-66
2023/04/12 09:36:01;;;;;;;57.60;36.42;;;32.10;99.90;;;;;;4976189;28;20022;-66
2023/04/12 09:38:29;;;;;;;58.20;35.47;;;32.00;99.90;;;;;;4975249;28;20038;-66
2023/04/12 09:40:56;;;;;;;51.42;35.65;;;32.00;99.90;;;;;;4975954;28;20074;-66
2023/04/12 09:43:43;;;;;;;69.25;40.33;;;32.00;99.90;;;;;;4975899;28;20034;-66
2023/04/12 09:46:11;;;;;;;56.63;38.83;;;32.00;99.90;;;;;;4975604;28;20122;-65
2023/04/12 09:48:47;;;;;;;66.88;44.72;;;32.00;99.90;;;;;;4975655;28;20035;-66
2023/04/12 09:51:25;;;;;;;72.63;45.72;;;32.00;99.90;;;;;;4975534;28;20033;-66
2023/04/12 09:53:52;;;;;;;76.72;52.50;;;32.00;99.90;;;;;;4975505;28;20105;-65
2023/04/12 09:56:22;;;;;;;66.95;47.63;;;32.00;99.90;;;;;;4975327;28;20055;-65
2023/04/12 09:58:52;;;;;;;76.13;52.92;;;31.90;99.90;;;;;;4975334;28;20039;-66
2023/04/12 10:01:22;;;;;;;78.22;52.05;;;31.90;99.90;;;;;;4975276;28;20055;-66
2023/04/12 10:03:49;;;;;;;84.72;51.70;;;31.90;99.90;;;;;;4975203;28;20047;-65
2023/04/12 10:06:17;;;;;;;80.80;53.05;;;31.90;99.90;;;;;;4975185;28;20030;-66
2023/04/12 10:08:45;;;;;;;83.65;58.13;;;31.80;99.90;;;;;;4975001;28;20105;-65
2023/04/12 10:11:11;;;;;;;95.85;64.10;;;31.70;99.90;;;;;;4975205;28;20082;-65
2023/04/12 10:13:39;;;;;;;91.18;58.80;;;31.70;99.90;;;;;;4975112;28;20034;-66
2023/04/12 10:16:08;;;;;;;86.55;59.75;;;31.50;99.90;;;;;;4975006;28;20023;-65
2023/04/12 10:18:38;;;;;;;80.10;54.25;;;31.60;99.90;;;;;;4985271;28;20501;-66
2023/04/12 10:21:06;;;;;;;61.85;43.55;;;31.60;99.90;;;;;;4994648;28;20070;-66
2023/04/12 10:23:33;;;;;;;61.13;42.70;;;31.50;99.90;;;;;;4994203;28;20023;-66
2023/04/12 10:26:03;;;;;;;63.03;44.65;;;31.50;99.90;;;;;;4994346;28;20396;-66
2023/04/12 10:28:30;;;;;;;71.22;48.25;;;31.50;99.90;;;;;;4994171;28;20049;-66
2023/04/12 10:30:57;;;;;;;77.90;53.50;;;31.50;99.90;;;;;;4994080;28;20026;-67
2023/04/12 10:33:27;;;;;;;83.45;52.53;;;31.40;99.90;;;;;;4994148;28;20105;-67
2023/04/12 10:35:59;;;;;;;75.40;45.78;;;31.40;99.90;;;;;;4993839;28;20432;-66
2023/04/12 10:38:29;;;;;;;;;;;31.20;99.90;;;;;;4996244;28;20431;-66
2023/04/12 10:41:16;;;;;;;56.80;37.33;;;31.30;99.90;;;;;;4999675;28;19905;-66
2023/04/12 10:43:45;;;;;;;69.88;43.88;;;31.30;99.90;;;;;;5000807;28;20029;-66
2023/04/12 10:46:51;;;;;;;80.82;46.20;;;31.20;99.90;;;;;;4996480;28;20034;-64
2023/04/12 10:49:18;;;;;;;69.28;43.17;;;31.20;99.90;;;;;;4999212;28;20034;-63
2023/04/12 10:52:05;;;;;;;78.97;50.38;;;31.10;99.90;;;;;;5001581;28;20030;-65
2023/04/12 10:54:34;;;;;;;127.95;86.60;;;30.90;99.90;;;;;;5005313;28;20030;-66
2023/04/12 10:57:03;;;;;;;76.93;50.10;;;31.00;99.90;;;;;;4988889;28;20113;-66
2023/04/12 10:59:51;;;;;;;60.55;40.22;;;31.00;99.90;;;;;;4991778;28;20034;-66
2023/04/12 11:02:17;;;;;;;76.85;51.30;;;31.20;99.90;;;;;;4974568;28;20035;-67
2023/04/12 11:05:07;;;;;;;72.78;50.55;;;31.10;99.90;;;;;;4974489;28;20070;-65
2023/04/12 11:07:40;;;;;;;75.15;49.50;;;31.10;99.90;;;;;;4974254;28;20051;-66
2023/04/12 11:10:20;;;;;;;79.05;51.05;;;31.10;99.90;;;;;;4975511;28;20117;-66
2023/04/12 11:12:55;;;;;;;76.75;49.47;;;31.10;99.90;;;;;;4992449;28;20031;-66
2023/04/12 11:15:26;;;;;;;94.38;65.47;;;31.00;99.90;;;;;;4992893;28;20026;-69
2023/04/12 11:17:54;;;;;;;135.43;95.90;;;30.90;99.90;;;;;;4992833;28;20089;-66
2023/04/12 11:20:21;;;;;;;105.10;69.72;;;30.90;99.90;;;;;;4993740;28;20113;-65
2023/04/12 11:22:50;;;;;;;102.82;65.97;;;30.90;99.90;;;;;;4994046;28;20030;-66
2023/04/12 11:25:17;;;;;;;156.77;98.68;;;30.90;99.90;;;;;;4991585;28;20030;-67
2023/04/12 11:27:54;;;;;;;109.38;69.20;;;30.80;99.90;;;;;;4998304;28;20039;-68
2023/04/12 11:30:22;;;;;;;81.07;52.47;;;30.80;99.90;;;;;;5000088;28;20014;-67
2023/04/12 11:32:49;;;;;;;104.82;65.63;;;30.80;99.90;;;;;;4999379;28;20022;-67
2023/04/12 11:35:16;;;;;;;130.13;77.68;;;30.70;99.90;;;;;;5003724;28;20108;-66
2023/04/12 11:37:43;;;;;;;118.15;69.55;;;30.50;99.90;;;;;;5002077;28;20092;-67
2023/04/12 11:40:10;;;;;;;96.28;58.33;;;30.30;99.90;;;;;;5001877;28;20022;-67
2023/04/12 11:42:39;;;;;;;83.25;49.25;;;30.10;99.90;;;;;;5002808;28;20494;-66
2023/04/12 11:45:07;;;;;;;80.60;44.72;;;30.20;99.90;;;;;;4997656;28;20395;-66
2023/04/12 11:47:34;;;;;;;84.80;52.40;;;29.90;99.90;;;;;;4993642;28;20034;-66
2023/04/12 11:50:00;;;;;;;68.00;44.45;;;29.90;99.90;;;;;;4997747;28;20049;-67
2023/04/12 11:52:30;;;;;;;74.07;46.15;;;30.10;99.90;;;;;;5003114;28;20022;-66
2023/04/12 11:55:01;;;;;;;65.00;41.95;;;30.20;99.90;;;;;;5002559;28;20038;-67
2023/04/12 11:57:27;;;;;;;60.45;39.38;;;30.10;99.90;;;;;;5001266;28;20053;-67
2023/04/12 11:59:59;;;;;;;52.13;33.20;;;30.20;99.90;;;;;;5002984;28;20017;-67
2023/04/12 12:02:26;;;;;;;56.85;33.72;;;30.30;99.90;;;;;;5003527;28;20096;-65
2023/04/12 12:04:54;;;;;;;57.50;34.55;;;30.10;99.90;;;;;;5002197;28;20031;-65
2023/04/12 12:07:22;;;;;;;62.27;35.37;;;30.10;99.90;;;;;;5000768;28;20035;-67
2023/04/12 12:09:49;;;;;;;55.85;35.33;;;29.90;99.90;;;;;;5001712;28;20555;-66
2023/04/12 12:12:17;;;;;;;47.90;30.35;;;29.90;99.90;;;;;;5005379;28;20494;-65
2023/04/12 12:14:47;;;;;;;59.30;32.83;;;29.90;99.90;;;;;;5000921;28;20088;-65
2023/04/12 12:17:16;;;;;;;56.28;33.92;;;29.80;99.90;;;;;;5001421;28;20066;-65
2023/04/12 12:19:45;;;;;;;53.92;32.53;;;29.70;99.90;;;;;;5003875;28;20034;-65
2023/04/12 12:22:17;;;;;;;53.67;32.40;;;29.60;99.90;;;;;;5005733;28;20084;-65
2023/04/12 12:24:49;;;;;;;64.25;34.65;;;29.60;99.90;;;;;;5003945;28;20097;-65
2023/04/12 12:27:38;;;;;;;67.30;39.40;;;29.50;99.90;;;;;;4995483;28;20507;-65
2023/04/12 12:30:07;;;;;;;72.22;44.80;;;29.50;99.90;;;;;;4989113;28;20050;-65
2023/04/12 12:32:35;;;;;;;74.95;48.60;;;29.40;99.90;;;;;;5002277;28;20030;-65
2023/04/12 12:35:07;;;;;;;91.65;53.20;;;29.20;99.90;;;;;;5005163;28;20026;-64
2023/04/12 12:37:34;;;;;;;75.63;47.28;;;29.30;99.90;;;;;;5001265;28;20033;-64
2023/04/12 12:40:13;;;;;;;75.20;46.80;;;29.30;99.90;;;;;;5004739;28;20483;-66
2023/04/12 12:42:49;;;;;;;62.75;39.63;;;29.30;99.90;;;;;;5002119;28;20034;-66